Fincastle, Indiana
Current Conditions -  °F | °C
As of 7:15 AM on Friday 28 Nov 2014 (Local Time) from K4I7 Reporting Station
Overcast Overcast  
Wind Chill: -6°   Ceiling: 7500
Heat Index: -6°   Visibility: 10mi
Dew Point: -8°   Wind: 3mph
Humidity: 86%   Direction: 180°S
Pressure: 30.36"   Gusts: NA
Location:  39.821°N, 86.7929°W
Report Text: K4I7 281215Z AUTO 18003KT 10SM OVC075 M06/M08 A3036 RMK AO2
Loading
Personal Weather Stations






























Interactive Weather Map New forecast layout! Learn more

10-Day Weather Forecast

Advertisements
Track Severe Weather on mobile